Tiempo atmosférico en la estación meteorológica de La Covatilla, estación de esquí, Salamanca (1960 m.)



Fecha
DESCASC
Temp. máxima en grados centígrados (hora)
DESCASC
Temp. mínima en grados centígrados (hora)
DESCASC
Temp. media en grados centígrados
DESCASC
Racha de viento máxima en m/sg (hora)
DESCASC
Velocidad máxima media en intervalos de 10 minutos(hora)
DESCASC
Precipitaciones diarias en mm
DESCASC
Precipitaciones de 00:00 a 06:00 en mm
DESCASC
Precipitaciones de 06:00 a 12:00 en mm
DESCASC
Precipitaciones de 12:00 a 18:00 en mm
DESCASC
Precipitaciones de 18:00 a 24:00 en mm
DESCASC
15-08-2019 23.4 (16:40) 11.4 (06:50) 17.4 10 (15:40) 3.89 (16:30) 0 0 0 0 0
14-08-2019 22 (17:30) 9.7 (00:00) 15.8 9.17 (17:00) 6.39 (07:40) 0 0 0 0 0
13-08-2019 18.3 (18:00) 7 (00:00) 12.6 -- (--) -- (--) 0 0 0 0 0
12-08-2019 13.6 (16:20) 2.9 (00:00) 8.3 -- (--) -- (--) 0 0 0 0 0
11-08-2019 13.8 (16:10) 5.5 (00:00) 9.7 -- (--) -- (--) 0.2 0.2 0 0 0
10-08-2019 17.6 (12:50) 6.6 (00:00) 12.1 -- (--) -- (--) 0 0 0 0 0
09-08-2019 16.8 (01:10) 7 (00:00) 11.9 -- (--) -- (--) 9.4 0 2.6 5.2 1.6
08-08-2019 20.8 (17:30) 12 (00:00) 16.4 -- (--) -- (--) 0 0 0 0 0
07-08-2019 15.9 (00:30) 12.1 (00:00) 14 -- (--) -- (--) 0.4 0 0 0.4 0
06-08-2019 22.7 (16:30) 12.9 (00:00) 17.8 12.5 (16:50) 7.22 (16:50) 0 0 0 0 0
05-08-2019 22.8 (17:30) 14.5 (00:00) 18.6 12.78 (10:10) 7.78 (08:30) 0 0 0 0 0
04-08-2019 22.5 (15:50) 12 (00:00) 17.3 -- (--) -- (--) 0 0 0 0 0
03-08-2019 22.8 (17:50) 13 (00:00) 17.9 12.78 (16:20) 6.94 (15:50) 0 0 0 0 0
02-08-2019 22.5 (17:40) 12.1 (00:00) 17.3 -- (--) -- (--) 0 0 0 0 0
01-08-2019 21.7 (17:10) 12.4 (00:00) 17.1 -- (--) -- (--) 0 0 0 0 0
31-07-2019 21.8 (17:00) 9.9 (00:00) 15.8 11.67 (16:10) 7.5 (00:20) 0 0 0 0 0
30-07-2019 15.5 (17:00) 3.6 (00:00) 9.5 10.83 (14:50) 7.78 (23:00) 0 0 0 0 0
29-07-2019 18.4 (15:10) 6.2 (00:00) 12.3 -- (--) -- (--) 0 0 0 0 0
28-07-2019 18.4 (17:20) 7 (00:00) 12.7 -- (--) -- (--) 0 0 0 0 0
27-07-2019 14.4 (18:20) 7.2 (00:00) 10.8 -- (--) -- (--) 1.8 0 1.6 0.2 0
26-07-2019 17.1 (16:30) 8.2 (00:00) 12.7 -- (--) -- (--) 0 0 0 0 0
25-07-2019 21.1 (18:20) 14.8 (00:00) 18 -- (--) -- (--) 0 0 0 0 0
24-07-2019 23.2 (18:10) 13.3 (00:00) 18.3 13.06 (15:40) 7.5 (15:40) 0 0 0 0 0
23-07-2019 -- (--) -- (--) -- -- (--) -- (--) -- -- -- -- 0.8
22-07-2019 -- (--) -- (--) -- -- (--) -- (--) -- -- -- -- --
21-07-2019 -- (--) -- (--) -- -- (--) -- (--) -- -- -- -- --
20-07-2019 -- (--) -- (--) -- -- (--) -- (--) -- -- -- -- --
19-07-2019 -- (--) -- (--) -- -- (--) -- (--) -- -- -- -- --

Gráficas

Temp. máximas Temp. mínimas Temp. medias Precipitaciones Rachas de viento máximas Velocidades máximas media en intervalos de 10 minutos

Datos horarios

Fecha y hora oficial Temperatura (ºC) Velocidad del viento (km/h) Dirección del viento Racha (km/h) Dirección de racha Precipitación (mm) Presión (hPa) Tendencia (hPa) Humedad (%)
2019-08-17 23:00:00 18 17 Sur 26 Sudoeste 0 808.6 0.5 26
2019-08-17 22:00:00 18.5 22 Sudoeste 31 Sudoeste 0 808.3 -0.1 29
2019-08-17 21:00:00 19.6 21 Sudoeste 32 Oeste 0 808.1 -0.4 28
2019-08-17 20:00:00 21.3 19 Oeste 39 Oeste 0 808.1 -0.7 27
2019-08-17 19:00:00 23 18 Oeste 37 Oeste 0 808.4 -0.6 25
2019-08-17 18:00:00 22.9 24 Oeste 44 Oeste 0 808.5 -0.6 28
2019-08-17 17:00:00 23.6 22 Oeste 40 Oeste 0 808.8 -0.7 25
2019-08-17 16:00:00 23.6 22 Oeste 41 Oeste 0 809 -0.6 27
2019-08-17 15:00:00 23.7 22 Oeste 35 Oeste 0 809.1 -0.6 28
2019-08-17 14:00:00 22.3 14 Noroeste 25 Oeste 0 809.5 -0.1 34
2019-08-17 13:00:00 21.4 14 Oeste 22 Oeste 0 809.6 0.1 39
2019-08-17 12:00:00 21 10 Oeste 16 Oeste 0 809.7 0.5 39
2019-08-17 11:00:00 20.3 11 Noroeste 17 Oeste 0 809.6 0.4 34
2019-08-17 10:00:00 20 11 Oeste 20 Sudoeste 0 809.5 0.6 26
2019-08-17 09:00:00 18.8 15 Sudoeste 27 Sudoeste 0 809.2 0.1 31
2019-08-17 08:00:00 17 18 Sudoeste 27 Sudoeste 0 809.2 -0.2 30
2019-08-17 07:00:00 16.1 18 Sudoeste 27 Sudoeste 0 808.9 -0.9 37
2019-08-17 06:00:00 16.2 18 Sudoeste 24 Sudoeste 0 809.1 -1 36
2019-08-17 05:00:00 16.1 15 Sudoeste 22 Sudoeste 0 809.4 -1 43
2019-08-17 04:00:00 16.7 15 Sudoeste 20 Sudoeste 0 809.8 -0.8 41
2019-08-17 03:00:00 16.5 13 Sudoeste 18 Sudoeste 0 810.1 -0.7 42
2019-08-17 02:00:00 14.8 14 Sudeste 19 Sudeste 0 810.4 -0.5 42
2019-08-17 01:00:00 15.1 12 Sudeste 16 Sudeste 0 810.6 0.2 43
2019-08-17 00:00:00 13.8 8 Sur 11 Sur 0 810.8 0.6 52
2019-08-16 23:00:00 15.6 9 Sur 16 Sudoeste 0 810.9 0.9 39
2019-08-16 22:00:00 15.5 12 Sudoeste 21 Oeste 0 810.4 0.2 39
2019-08-16 21:00:00 20.1 13 Oeste 23 Oeste 0 810.2 -0.1 41
2019-08-16 20:00:00 21.8 13 Oeste 26 Noroeste 0 810 -0.2 38
2019-08-16 19:00:00 23 13 Oeste 29 Oeste 0 810.2 -0.2 32
2019-08-16 18:00:00 22.9 18 Oeste 36 Oeste 0 810.3 -0.2 30
2019-08-16 17:00:00 22.9 18 Oeste 44 Oeste 0 810.2 -0.5 33
2019-08-16 16:00:00 23 22 Oeste 41 Oeste 0 810.4 -0.4 36
2019-08-16 15:00:00 22.5 19 Oeste 35 Oeste 0 810.5 -0.3 36
2019-08-16 14:00:00 21.3 14 Oeste 27 Oeste 0 810.7 0.1 44
2019-08-16 13:00:00 20.9 12 Oeste 21 Oeste 0 810.8 0.3 46
2019-08-16 12:00:00 20.5 8 Oeste 20 Sur 0 810.8 0.6 45
2019-08-16 11:00:00 20.8 6 Oeste 24 Oeste 0 810.6 0.5 34
2019-08-16 10:00:00 19.9 11 Sudoeste 29 Sudoeste 0 810.5 0.6 35
2019-08-16 09:00:00 18.2 15 Sudoeste 22 Sudoeste 0 810.2 0.2 43
2019-08-16 08:00:00 16.5 15 Sudoeste 23 Sudoeste 0 810.1 -0.2 48
2019-08-16 07:00:00 16.2 16 Sudoeste 27 Sudoeste 0 809.9 -0.7 48
2019-08-16 06:00:00 16.6 18 Sudoeste 31 Sudoeste 0 810 -1 45
2019-08-16 05:00:00 17 18 Sudoeste 28 Sudoeste 0 810.3 -1.1 42
2019-08-16 04:00:00 16.3 16 Sudoeste 23 Sudoeste 0 810.6 -1.2 43
2019-08-16 03:00:00 13.9 4 Sudeste 18 Este 0 811 -0.9 58
2019-08-16 02:00:00 14.6 14 Este 18 Este 0 811.4 -0.5 62
2019-08-16 01:00:00 15.7 6 Sudeste 11 Sudeste 0 811.8 0.2 58
2019-08-16 00:00:00 14.6 5 Sudoeste 10 Sudoeste 0 811.9 0.6 60
2019-08-15 23:00:00 14.7 6 Sur 8 Sudeste 0 811.9 0.7 53
2019-08-15 22:00:00 16.8 4 Sudeste 8 Sudeste 0 811.6 0.2 46
2019-08-15 21:00:00 19.7 5 Norte 18 Norte 0 811.3 0 38
2019-08-15 20:00:00 21.9 8 Oeste 22 Noroeste 0 811.2 -0.3 31
2019-08-15 19:00:00 22.9 12 Noroeste 25 Oeste 0 811.4 -0.3 25
2019-08-15 18:00:00 23.2 11 Noroeste 24 Sudoeste 0 811.3 -0.5 25
2019-08-15 17:00:00 22.7 13 Noroeste 27 Noroeste 0 811.5 -0.4 28
2019-08-15 16:00:00 22.5 11 Oeste 36 Oeste 0 811.7 -0.1 31
2019-08-15 15:00:00 22.1 10 Noroeste 27 Norte 0 811.8 0 37
2019-08-15 14:00:00 20.7 8 Nordeste 20 Oeste 0 811.9 0.3 48
2019-08-15 13:00:00 20.2 11 Noroeste 21 Oeste 0 811.8 0.3 52
2019-08-15 12:00:00 19.6 13 Nordeste 23 Nordeste 0 811.8 0.4 57
2019-08-15 11:00:00 19.5 11 Nordeste 17 Nordeste 0 811.6 0.3 58
2019-08-15 10:00:00 19 7 Nordeste 12 Este 0 811.5 0.3 60
2019-08-15 09:00:00 17.7 5 Este 9 Sudeste 0 811.4 0.3 62
2019-08-15 08:00:00 13 5 Sudeste 10 Sur 0 811.3 0.3 69
2019-08-15 07:00:00 12.2 3 Sur 13 Este 0 811.2 -0.1 71
2019-08-15 06:00:00 12.9 9 Este 12 Este 0 811.1 -0.5 76
2019-08-15 05:00:00 11.9 3 Sudeste 12 Sudeste 0 811 -1 71
2019-08-15 04:00:00 13.3 12 Este 17 Este 0 811.3 -1 72
2019-08-15 03:00:00 13.8 11 Sudeste 16 Este 0 811.6 -0.7 77
2019-08-15 02:00:00 13.8 10 Este 13 Este 0 812 -0.3 78
2019-08-15 01:00:00 13.3 4 Sur 10 Sudoeste 0 812.3 0.5 73
2019-08-15 00:00:00 13.8 5 Sur 10 Sur 0 812.3 0.8 67
2019-08-14 23:00:00 13.9 7 Sudoeste 9 Sudoeste 0 812.3 1.1 61
2019-08-14 22:00:00 15.4 4 Sudoeste 19 Oeste 0 811.8 0.4 51
2019-08-14 21:00:00 18.6 12 Oeste 22 Noroeste 0 811.5 0.1 37
2019-08-14 20:00:00 20.7 9 Oeste 33 Oeste 0 811.2 -0.4 30
2019-08-14 19:00:00 21.4 14 Noroeste 28 Oeste 0 811.4 -0.3 28
2019-08-14 18:00:00 21.6 14 Noroeste 30 Oeste 0 811.4 -0.4 27
2019-08-14 17:00:00 20.8 15 Oeste 33 Oeste 0 811.6 -0.1 27
2019-08-14 16:00:00 21 14 Oeste 28 Oeste 0 811.7 0 27
2019-08-14 15:00:00 20 13 Oeste 28 Noroeste 0 811.8 0.2 26
2019-08-14 14:00:00 18.8 10 Noroeste 19 Noroeste 0 811.7 0.4 29
2019-08-14 13:00:00 18.1 11 Oeste 19 Oeste 0 811.7 0.7 31
2019-08-14 12:00:00 18.2 6 Oeste 17 Oeste 0 811.6 1 29
2019-08-14 11:00:00 16.4 12 Oeste 19 Oeste 0 811.3 0.9 32
2019-08-14 10:00:00 15.3 14 Oeste 23 Oeste 0 811 0.8 34
2019-08-14 09:00:00 14.9 16 Sudoeste 24 Oeste 0 810.6 0.4 33
2019-08-14 08:00:00 13.5 17 Sudoeste 28 Sudoeste 0 810.4 -0.1 36
2019-08-14 07:00:00 13.1 22 Sudoeste 28 Oeste 0 810.2 -0.3 37
2019-08-14 06:00:00 12.8 17 Sudoeste 27 Sudoeste 0 810.2 -0.3 37
2019-08-14 05:00:00 10.2 10 Sudoeste 16 Sudoeste 0 810.5 -0.4 49
2019-08-14 04:00:00 11.1 12 Sudoeste 21 Sudoeste 0 810.5 -0.4 42
2019-08-14 03:00:00 13 14 Sudoeste 22 Sur 0 810.5 -0.4 38
2019-08-14 02:00:00 11.1 12 Este 16 Sudeste 0 810.9 0.1 44
2019-08-14 01:00:00 11 11 Este 15 Sudeste 0 810.9 0.4 40
2019-08-14 00:00:00 10.8 10 Sudeste 19 Este 0 810.9 0.7 42
2019-08-13 23:00:00 11.9 13 Este 18 Este 0 810.8 0.8 39
2019-08-13 22:00:00 11.9 9 Este -- -- 0 810.5 0.5 39
2019-08-13 21:00:00 13.9 -- -- -- -- 0 810.2 0.2 36
2019-08-13 20:00:00 15.4 -- -- -- -- 0 810 0 32
2019-08-13 19:00:00 17.7 12 Noroeste 24 Noroeste 0 810 -0.1 28
2019-08-13 18:00:00 18 10 Oeste 26 Noroeste 0 810 -0.1 29
2019-08-13 17:00:00 17.8 9 Noroeste 28 Oeste 0 810 -0.2 32
2019-08-13 16:00:00 17.4 12 Noroeste 26 Oeste 0 810.1 0 32
2019-08-13 15:00:00 16.7 10 Noroeste 27 Noroeste 0 810.1 0 35
2019-08-13 14:00:00 15.7 9 Noroeste -- -- 0 810.2 0.7 37
2019-08-13 13:00:00 15.9 -- -- -- -- 0 810.1 0.8 36
2019-08-13 12:00:00 13.9 8 Oeste 15 Noroeste 0 810.1 1.1 34
2019-08-13 11:00:00 14.7 5 Noroeste 13 Norte 0 809.5 0.7 35
2019-08-13 10:00:00 13.4 5 Noroeste -- -- 0 809.3 0.8 34
2019-08-13 09:00:00 12.8 -- -- -- -- 0 809 0.5 34
2019-08-13 08:00:00 8.2 8 Sur 15 Sudoeste 0 808.8 0.1 51
2019-08-13 07:00:00 7.2 10 Sudoeste 17 Sur 0 808.5 -0.2 53
2019-08-13 06:00:00 8 13 Sur 19 Sur 0 808.5 -0.4 50
2019-08-13 05:00:00 7.8 -- -- -- -- 0 808.7 -1 51
2019-08-13 04:00:00 10.3 -- -- -- -- 0 808.7 -1.1 41
2019-08-13 03:00:00 10.2 16 Sur -- -- 0 808.9 -0.9 45
2019-08-13 02:00:00 8.1 18 Sudeste 22 Este 0 809.7 0.4 51
2019-08-13 01:00:00 8.2 17 Este 23 Este 0 809.8 0.8 52
2019-08-13 00:00:00 8.5 16 Este 22 Este 0 809.8 1.1 48
2019-08-12 23:00:00 8.9 18 Este -- -- 0 809.3 0.6 47
2019-08-12 22:00:00 9.1 -- -- -- -- 0 809 0.2 47
2019-08-12 21:00:00 9.5 20 Este 27 Este 0 808.7 0.1 45
2019-08-12 20:00:00 10.5 21 Nordeste 29 Nordeste 0 808.7 0.1 42
2019-08-12 19:00:00 12.6 21 Nordeste -- -- 0 808.8 0 40
2019-08-12 18:00:00 13.3 -- -- -- -- 0 808.6 -0.4 39
2019-08-12 17:00:00 13.2 -- -- -- -- 0 808.6 -0.3 41
2019-08-12 16:00:00 13.1 -- -- -- -- 0 808.8 0 45
2019-08-12 15:00:00 12.4 -- -- -- -- 0 809 0.3 50
2019-08-12 14:00:00 11.5 -- -- -- -- 0 808.9 0.6 51
2019-08-12 13:00:00 10.4 25 Este 33 Nordeste 0 808.8 1 57
2019-08-12 12:00:00 9.2 22 Este 35 Nordeste 0 808.7 1.1 58
2019-08-12 11:00:00 8.6 22 Este 33 Este 0 808.3 1 51
2019-08-12 10:00:00 7.4 24 Este -- -- 0 807.8 0.9 67
2019-08-12 09:00:00 6.1 20 Este 27 Este 0 807.6 0.6 80
2019-08-12 08:00:00 4.4 18 Este 24 Sudeste 0 807.3 0.2 79
2019-08-12 07:00:00 3.6 19 Este 26 Este 0 806.9 -0.6 79
2019-08-12 06:00:00 3.9 20 Este 26 Este 0 807 -1.1 82
2019-08-12 05:00:00 3.3 18 Este 24 Este 0 807.1 -1.5 89
2019-08-12 04:00:00 3.9 18 Este 25 Este 0 807.5 -1.4 96
2019-08-12 03:00:00 4.4 17 Este 25 Este 0 808.1 -0.8 90
2019-08-12 02:00:00 5.1 15 Este -- -- 0 808.6 -0.1 91
2019-08-12 01:00:00 5.8 -- -- -- -- 0 808.9 0.7 86
2019-08-12 00:00:00 5.8 4 Sudoeste 10 Noroeste 0 808.9 1 81
2019-08-11 23:00:00 6.5 4 Oeste 14 Noroeste 0 808.7 1.1 71
2019-08-11 22:00:00 8.2 8 Noroeste -- -- 0 808.2 0.7 62
2019-08-11 21:00:00 10.5 12 Oeste 24 Noroeste 0 807.9 0.3 51
2019-08-11 20:00:00 12 16 Oeste 28 Noroeste 0 807.6 0 45
2019-08-11 19:00:00 12.9 14 Oeste -- -- 0 807.5 0.1 44
2019-08-11 18:00:00 13.4 19 Oeste -- -- 0 807.6 0.2 46
2019-08-11 17:00:00 12.7 17 Oeste -- -- 0 807.6 0.1 53
2019-08-11 16:00:00 13.1 -- -- -- -- 0 807.4 -0.2 59
2019-08-11 15:00:00 11.9 16 Oeste -- -- 0 807.4 0.3 77
2019-08-11 14:00:00 11 15 Oeste 23 Oeste 0 807.5 0.6 83
2019-08-11 13:00:00 11.6 8 Noroeste 18 Oeste 0 807.6 1 76
2019-08-11 12:00:00 12.3 10 Oeste 26 Oeste 0 807.1 0.8 68
2019-08-11 11:00:00 12.4 12 Oeste 24 Oeste 0 806.9 1 61
2019-08-11 10:00:00 11.1 12 Oeste -- -- 0 806.6 0.9 67
2019-08-11 09:00:00 11.6 21 Sudoeste -- -- 0 806.3 0.8 58
2019-08-11 08:00:00 10.8 26 Sudoeste 41 Sudoeste 0 805.9 -0.5 56
2019-08-11 07:00:00 10.4 25 Sudoeste 44 Sudoeste 0 805.7 -1.7 52
2019-08-11 06:00:00 11.4 28 Sudoeste -- -- 0 805.5 -2 36
2019-08-11 05:00:00 8.9 11 Sur -- -- 0 806.4 -1.3 79
2019-08-11 04:00:00 9.8 -- -- -- -- 0 807.4 -0.6 59
2019-08-11 03:00:00 9.6 6 Sur -- -- 0 807.5 -0.9 77
2019-08-11 02:00:00 10.3 9 Sudeste 17 Sudeste 0.2 807.7 -1.1 73
2019-08-11 01:00:00 11 8 Este 10 Este 0 808 -0.7 63
2019-08-11 00:00:00 11.3 7 Este 13 Nordeste 0 808.4 -0.3 62
2019-08-10 23:00:00 12.8 8 Sur 14 Sudoeste 0 808.8 0.1 49
2019-08-10 22:00:00 13 12 Oeste 17 Sudoeste 0 808.7 -0.1 45
2019-08-10 21:00:00 14.3 15 Sudoeste 19 Sudoeste 0 808.7 -0.3 39
2019-08-10 20:00:00 14.3 9 Oeste 19 Oeste 0 808.7 -0.5 57
2019-08-10 19:00:00 14.9 16 Oeste 24 Oeste 0 808.8 -0.8 61
2019-08-10 18:00:00 16.2 15 Oeste 26 Oeste 0 809 -0.8 48
2019-08-10 17:00:00 17.6 16 Oeste 27 Oeste 0 809.2 -0.6 48
2019-08-10 16:00:00 16.7 16 Oeste 23 Oeste 0 809.6 0 50
2019-08-10 15:00:00 15.9 12 Oeste 24 Oeste 0 809.8 0.3 58
2019-08-10 14:00:00 15.6 9 Oeste 22 Noroeste 0 809.8 0.4 65
2019-08-10 13:00:00 16.1 9 Noroeste 15 Oeste 0 809.6 0.4 57
2019-08-10 12:00:00 16.1 9 Oeste 19 Oeste 0 809.5 0.7 30
2019-08-10 11:00:00 15 12 Oeste 21 Sudoeste 0 809.4 0.7 25
2019-08-10 10:00:00 14.2 15 Sudoeste 24 Sudoeste 0 809.2 0.9 20
2019-08-10 09:00:00 13.4 13 Sudoeste 24 Sudoeste 0 808.8 0.5 24
2019-08-10 08:00:00 11.3 13 Sudoeste 24 Sudoeste 0 808.7 0.2 25
2019-08-10 07:00:00 9.4 15 Sudoeste -- -- 0 808.3 -0.2 28
2019-08-10 06:00:00 8.8 18 Sudoeste 24 Sudoeste 0 808.3 -0.4 30
2019-08-10 05:00:00 8.7 17 Sudoeste -- -- 0 808.5 -0.3 38
2019-08-10 04:00:00 8.6 -- -- -- -- 0 808.5 -0.5 33
2019-08-10 03:00:00 9.9 17 Sudoeste -- -- 0 808.7 -0.5 31
2019-08-10 02:00:00 9.9 15 Sudoeste 31 Sudoeste 0 808.8 -0.2 29
2019-08-10 01:00:00 7.2 4 Sudeste 12 Este 0 809 0.4 73
2019-08-10 00:00:00 7 5 Sur -- -- 0 809.2 1.3 89
2019-08-09 23:00:00 7.5 9 Oeste -- -- 0 809 1.1 91
2019-08-09 22:00:00 9 15 Oeste -- -- 0 808.6 1.2 77
2019-08-09 21:00:00 11.1 21 Sudoeste 40 Sudoeste 0 807.9 0.2 54
2019-08-09 20:00:00 12.5 22 Oeste -- -- 0 807.9 0.3 95
2019-08-09 19:00:00 12.9 -- -- -- -- 1.6 807.4 -0.2 97
2019-08-09 18:00:00 11.7 -- -- -- -- 1.6 807.7 0.2 97
2019-08-09 17:00:00 12.7 -- -- -- -- 0.8 807.6 0.1 97
2019-08-09 16:00:00 13.4 -- -- -- -- 0.6 807.6 0.6 97
2019-08-09 15:00:00 14.7 -- -- -- -- 0.8 807.5 0.8 97
2019-08-09 14:00:00 14.4 -- -- -- -- 1.2 807.5 1.2 97
2019-08-09 13:00:00 14 -- -- -- -- 0.2 807 1.1 97
2019-08-09 12:00:00 13.3 48 Sudoeste -- -- 0.4 806.7 1.2 97
2019-08-09 11:00:00 13.4 46 Sudoeste 86 Sudoeste 0.6 806.3 0.8 97
2019-08-09 10:00:00 13 -- -- -- -- 1.4 805.9 0.9 96
2019-08-09 09:00:00 13.1 50 Sudoeste 76 Sudoeste 0.2 805.5 0.4 96
2019-08-09 08:00:00 13.1 45 Sudoeste -- -- 0 805.5 -0.2 96
2019-08-09 07:00:00 13 51 Sudoeste -- -- 0 805 -0.8 95
2019-08-09 06:00:00 14.9 -- -- -- -- 0 805.1 -0.9 77
2019-08-09 05:00:00 14.5 -- -- -- -- 0 805.7 -0.6 67
2019-08-09 04:00:00 15.1 -- -- -- -- 0 805.8 -0.8 63
2019-08-09 03:00:00 15.8 -- -- -- -- 0 806 -0.9 47
2019-08-09 02:00:00 16.8 -- -- -- -- 0 806.3 -0.6 39
2019-08-09 01:00:00 16.6 -- -- -- -- 0 806.6 -0.1 40
2019-08-09 00:00:00 16.2 -- -- -- -- 0 806.9 0.2 49
2019-08-08 23:00:00 15.9 -- -- -- -- 0 806.9 0.3 55
2019-08-08 22:00:00 15 26 Sudoeste 41 Oeste 0 806.7 0.2 84
2019-08-08 21:00:00 16.6 24 Sudoeste 42 Sudoeste 0 806.7 -0.1 71
2019-08-08 20:00:00 17.3 -- -- -- -- 0 806.6 0.2 64
2019-08-08 19:00:00 19.3 30 Sudoeste -- -- 0 806.5 -0.4 55
2019-08-08 18:00:00 19.3 -- -- -- -- 0 806.8 -0.1 52
2019-08-08 17:00:00 19.9 31 Sudoeste -- -- 0 806.4 -0.5 46
2019-08-08 16:00:00 19.5 -- -- -- -- 0 806.9 0.1 51
2019-08-08 15:00:00 20 -- -- -- -- 0 806.9 -0.1 49
2019-08-08 14:00:00 20 -- -- -- -- 0 806.9 0 47
2019-08-08 13:00:00 19.6 -- -- -- -- 0 806.8 0.1 50
2019-08-08 12:00:00 17.5 9 Oeste 23 Sudoeste 0 807 0.6 70
2019-08-08 11:00:00 17 10 Oeste 31 Sudoeste 0 806.9 0.7 74
2019-08-08 10:00:00 15.8 -- -- -- -- 0 806.7 0.7 79
2019-08-08 09:00:00 13.7 -- -- -- -- 0 806.4 0.5 88
2019-08-08 08:00:00 12.9 -- -- -- -- 0 806.2 0.2 92
2019-08-08 07:00:00 12 -- -- -- -- 0 806 -0.3 96
2019-08-08 06:00:00 12.8 -- -- -- -- 0 805.9 -0.5 91
2019-08-08 05:00:00 13.2 -- -- -- -- 0 806 -0.6 88
2019-08-08 04:00:00 12.5 33 Sudoeste 50 Sudoeste 0 806.3 -0.3 91
2019-08-08 03:00:00 12.7 33 Sudoeste 49 Sudoeste 0 806.4 -0.1 82
2019-08-08 02:00:00 13.8 37 Sudoeste 53 Sudoeste 0 806.6 0 80
2019-08-08 01:00:00 14.3 23 Sudoeste -- -- 0 806.6 0.3 76
2019-08-08 00:00:00 14.7 -- -- -- -- 0 806.5 0.5 45
2019-08-07 23:00:00 13.5 32 Sudoeste 46 Sudoeste 0 806.6 0.8 41
2019-08-07 22:00:00 13.5 36 Sudoeste 55 Sudoeste 0 806.3 0.4 54
2019-08-07 21:00:00 13.4 33 Sudoeste -- -- 0 806 0.3 60
2019-08-07 20:00:00 14.6 -- -- -- -- 0 805.8 -0.1 60
2019-08-07 19:00:00 14.3 -- -- -- -- 0 805.9 -0.6 62
2019-08-07 18:00:00 13.9 -- -- -- -- 0 805.7 -0.8 76
2019-08-07 17:00:00 12.4 -- -- -- -- 0.2 805.9 -0.8 84
2019-08-07 16:00:00 13.3 33 Sudoeste 53 Sudoeste 0.2 806.5 -0.1 83
2019-08-07 15:00:00 14.1 15 Sudoeste 24 Oeste 0 806.5 0 74
2019-08-07 14:00:00 14.7 14 Oeste 35 Sudoeste 0 806.7 0.8 56
2019-08-07 13:00:00 13.9 26 Sudoeste 37 Sudoeste 0 806.6 1.1 56
2019-08-07 12:00:00 15 16 Oeste 30 Oeste 0 806.5 1.2 64
2019-08-07 11:00:00 15.6 18 Oeste 28 Sudoeste 0 805.9 0.9 48
2019-08-07 10:00:00 14.3 21 Sudoeste 28 Sudoeste 0 805.5 0.8 54
2019-08-07 09:00:00 14.9 16 Sudoeste 24 Sudoeste 0 805.3 0.8 48
2019-08-07 08:00:00 14.6 19 Sudoeste 31 Sudoeste 0 805 0.5 46
2019-08-07 07:00:00 14.6 19 Sudoeste 32 Sudoeste 0 804.7 -0.1 45
2019-08-07 06:00:00 15.4 25 Sudoeste 35 Sudoeste 0 804.5 -0.9 44
2019-08-07 05:00:00 14.9 17 Sudoeste 27 Sudoeste 0 804.5 -1 43
2019-08-07 04:00:00 15.8 14 Sudoeste 26 Sur 0 804.8 -1.2 40
2019-08-07 03:00:00 15.4 19 Sudoeste 26 Sudoeste 0 805.4 -1.1 45
2019-08-07 02:00:00 14.9 8 Sur 14 Sudoeste 0 805.5 -1 52
2019-08-07 01:00:00 14.5 7 Sudoeste 28 Sudoeste 0 806 -0.2 61
2019-08-07 00:00:00 15.4 14 Sudoeste 23 Sudoeste 0 806.5 0.5 60
2019-08-06 23:00:00 15.5 17 Sudoeste 28 Sudoeste 0 806.5 0.8 59
2019-08-06 22:00:00 16.2 16 Sudoeste 26 Sudoeste 0 806.2 0.2 56
2019-08-06 21:00:00 16.9 17 Oeste 32 Sudoeste 0 806 -0.2 50
2019-08-06 20:00:00 18.1 19 Oeste 32 Oeste 0 805.7 -0.7 46
2019-08-06 19:00:00 19.3 20 Oeste 44 Oeste 0 806 -0.6 44
2019-08-06 18:00:00 21 24 Oeste 39 Oeste 0 806.2 -0.6 38
2019-08-06 17:00:00 21.2 24 Oeste 45 Oeste 0 806.4 -0.7 33
2019-08-06 16:00:00 21.6 24 Oeste 43 Oeste 0 806.6 -0.7 41
2019-08-06 15:00:00 21.5 15 Noroeste 28 Noroeste 0 806.8 -0.5 42
2019-08-06 14:00:00 21.2 17 Oeste 33 Oeste 0 807.1 0.1 33
2019-08-06 13:00:00 21 17 Oeste 28 Oeste 0 807.3 0.4 32
2019-08-06 12:00:00 20.4 17 Oeste 31 Oeste 0 807.3 0.6 32
2019-08-06 11:00:00 19.4 16 Oeste 29 Sudoeste 0 807 0.2 35
2019-08-06 10:00:00 18.4 17 Oeste 26 Oeste 0 806.9 0 37
2019-08-06 09:00:00 18.4 13 Sudoeste 26 Sudoeste 0 806.7 0 28
2019-08-06 08:00:00 16.2 17 Sudoeste 27 Sudoeste 0 806.8 -0.2 38
2019-08-06 07:00:00 15.1 17 Sudoeste 28 Sudoeste 0 806.9 -0.3 41
2019-08-06 06:00:00 15.4 19 Sudoeste 27 Sudoeste 0 806.7 -0.8 38
2019-08-06 05:00:00 15.2 15 Sudoeste 25 Sudoeste 0 807 -1 29
2019-08-06 04:00:00 15.8 15 Sudoeste 23 Sudoeste 0 807.2 -0.9 28
2019-08-06 03:00:00 14.6 18 Sudeste 21 Sudeste 0 807.5 -0.8 33
2019-08-06 02:00:00 14 12 Este 15 Sudoeste 0 808 -0.3 48
2019-08-06 01:00:00 14.2 12 Sudoeste 18 Sudoeste 0 808.1 0.2 35
2019-08-06 00:00:00 16.1 13 Sudoeste 17 Sudoeste 0 808.3 0.6 31
2019-08-05 23:00:00 15.1 11 Sudoeste 17 Sudoeste 0 808.3 0.7 34
2019-08-05 22:00:00 15.7 10 Sudoeste 14 Sudoeste 0 807.9 0.4 33
2019-08-05 21:00:00 19.6 9 Oeste 23 Oeste 0 807.7 0.1 25
2019-08-05 20:00:00 20.9 15 Sudoeste 36 Oeste 0 807.6 0 17
2019-08-05 19:00:00 21.4 19 Oeste 37 Oeste 0 807.5 -0.3 23
2019-08-05 18:00:00 22.2 22 Oeste 39 Oeste 0 807.6 -0.3 22
2019-08-05 17:00:00 22.4 23 Oeste 42 Oeste 0 807.6 -0.4 26
2019-08-05 16:00:00 21.8 21 Oeste 43 Oeste 0 807.8 -0.3 27
2019-08-05 15:00:00 22 21 Oeste 32 Oeste 0 807.9 -0.1 31
2019-08-05 14:00:00 20.9 16 Noroeste 28 Noroeste 0 808 0 31
2019-08-05 13:00:00 21 11 Oeste 27 Sudoeste 0 808.1 0.3 31
2019-08-05 12:00:00 21 9 Oeste 33 Oeste 0 808 0.2 21
2019-08-05 11:00:00 20.5 20 Sudoeste 46 Sudoeste 0 808 0.3 13
2019-08-05 10:00:00 19.1 26 Sudoeste 40 Sudoeste 0 807.8 0.1 15
2019-08-05 09:00:00 18.3 23 Sudoeste 41 Sudoeste 0 807.8 0 14
2019-08-05 08:00:00 17.2 23 Sudoeste 38 Sudoeste 0 807.7 -0.4 18
2019-08-05 07:00:00 16.4 23 Sudoeste 31 Sur 0 807.7 -0.6 22
2019-08-05 06:00:00 16.3 19 Sur 31 Sudoeste 0 807.8 -0.7 22
2019-08-05 05:00:00 15.9 16 Sur 27 Sur 0 808.1 -0.8 28
2019-08-05 04:00:00 15.8 15 Sur 25 Sur 0 808.3 -0.7 28
2019-08-05 03:00:00 15.8 17 Sur 23 Sur 0 808.5 -0.7 41
2019-08-05 02:00:00 15.1 -- -- -- -- 0 808.9 -0.4 41
2019-08-05 01:00:00 14.8 10 Sudeste 14 Sudeste 0 809 0.2 30
2019-08-05 00:00:00 14.9 13 Sur 16 Sur 0 809.2 0.7 35
2019-08-04 23:00:00 14.5 11 Sudoeste -- -- 0 809.3 1.1 44
2019-08-04 22:00:00 17 -- -- -- -- 0 808.8 0.7 41
2019-08-04 21:00:00 18.8 -- -- -- -- 0 808.5 0.4 34
2019-08-04 20:00:00 20 -- -- -- -- 0 808.2 0.1 36
2019-08-04 19:00:00 21.2 -- -- -- -- 0 808.1 -0.1 35
2019-08-04 18:00:00 22.1 -- -- -- -- 0 808.1 -0.2 42
2019-08-04 17:00:00 22.2 21 Oeste 42 Oeste 0 808.1 -0.2 37
2019-08-04 16:00:00 22.1 24 Oeste 37 Oeste 0 808.2 -0.2 43
2019-08-04 15:00:00 21.9 18 Oeste 34 Oeste 0 808.3 0 43
2019-08-04 14:00:00 20.8 17 Oeste 30 Oeste 0 808.3 0.2 46
2019-08-04 13:00:00 19.9 14 Oeste 26 Oeste 0 808.4 0.5 46
2019-08-04 12:00:00 19.5 13 Oeste 23 Oeste 0 808.3 0.5 46
2019-08-04 11:00:00 19.3 12 Oeste 24 Oeste 0 808.1 0.7 41
2019-08-04 10:00:00 18.9 13 Oeste 20 Oeste 0 807.9 0.6 35
2019-08-04 09:00:00 17.4 12 Sudoeste 17 Sudoeste 0 807.8 0.4 37
2019-08-04 08:00:00 15 13 Sur 19 Sur 0 807.4 -0.3 39
2019-08-04 07:00:00 13.3 15 Sur 21 Sur 0 807.3 -0.6 43
2019-08-04 06:00:00 13.1 14 Sur 19 Sur 0 807.4 -0.6 46
2019-08-04 05:00:00 13.1 12 Sudeste 16 Sudeste 0 807.7 -0.4 62
2019-08-04 04:00:00 13.5 11 Este 15 Sudeste 0 807.9 -0.4 70
2019-08-04 03:00:00 13.7 14 Este 16 Este 0 808 -0.3 70
2019-08-04 02:00:00 13.2 9 Este 13 Sudeste 0 808.1 -0.3 65
2019-08-04 01:00:00 14.4 6 Sudeste 22 Sudoeste 0 808.3 0.4 59
2019-08-04 00:00:00 14.9 16 Sudoeste 21 Sudoeste 0 808.3 0.7 48
2019-08-03 23:00:00 16.5 11 Sudoeste 13 Sudoeste 0 808.4 0.8 38
2019-08-03 22:00:00 15.2 10 Sudoeste 14 Oeste 0 807.9 0.2 46
2019-08-03 21:00:00 19.8 9 Oeste 25 Oeste 0 807.6 -0.2 32
2019-08-03 20:00:00 21.5 12 Oeste 30 Oeste 0 807.6 -0.3 29
2019-08-03 19:00:00 21.8 17 Sudoeste 40 Oeste 0 807.7 -0.3 29
2019-08-03 18:00:00 22.2 19 Oeste 35 Oeste 0 807.8 -0.3 27
2019-08-03 17:00:00 22.3 22 Oeste 46 Oeste 0 807.9 -0.2 28
2019-08-03 16:00:00 22.1 22 Oeste 40 Oeste 0 808 -0.2 31
2019-08-03 15:00:00 21.7 22 Oeste 39 Oeste 0 808.1 0.1 35
2019-08-03 14:00:00 21.4 18 Oeste 31 Oeste 0 808.1 0.3 33
2019-08-03 13:00:00 20.6 17 Oeste 28 Noroeste 0 808.2 0.4 28
2019-08-03 12:00:00 20.1 15 Oeste 21 Noroeste 0 808 0.4 29
2019-08-03 11:00:00 20 14 Oeste 26 Oeste 0 807.8 0.4 25
2019-08-03 10:00:00 18.9 13 Sudoeste 24 Sudoeste 0 807.8 0.4 21
2019-08-03 09:00:00 17.9 14 Sur 27 Sudoeste 0 807.6 0.2 24
2019-08-03 08:00:00 16.5 15 Sur 26 Sur 0 807.4 -0.2 23
2019-08-03 07:00:00 14.6 15 Sur 27 Sur 0 807.4 -0.3 25
2019-08-03 06:00:00 13.2 10 Sur 15 Sur 0 807.4 -0.6 33
2019-08-03 05:00:00 14.3 11 Sudeste 15 Sudeste 0 807.6 -0.8 39
2019-08-03 04:00:00 14.6 10 Sudeste 15 Sudeste 0 807.7 -1.1 38
2019-08-03 03:00:00 15.1 10 Sudeste 13 Este 0 808 -1 38
2019-08-03 02:00:00 13.8 7 Sur 13 Sur 0 808.4 -0.7 41
2019-08-03 01:00:00 13.5 9 Sudoeste 12 Sur 0 808.8 0.1 38
2019-08-03 00:00:00 14.8 9 Sudoeste 12 Sur 0 809 0.5 34
2019-08-02 23:00:00 14.2 9 Sudoeste 11 Sur 0 809.1 0.8 39
2019-08-02 22:00:00 15.8 8 Sudoeste 12 Oeste 0 808.7 0.3 34
2019-08-02 21:00:00 20.4 10 Oeste 22 Oeste 0 808.5 0 25
2019-08-02 20:00:00 21.7 12 Oeste 26 Noroeste 0 808.3 -0.4 22
2019-08-02 19:00:00 22.2 15 Oeste 31 Oeste 0 808.4 -0.4 24
2019-08-02 18:00:00 22.4 17 Oeste 28 Oeste 0 808.5 -0.4 25
2019-08-02 17:00:00 22.1 17 Oeste 31 Oeste 0 808.7 0 29
2019-08-02 16:00:00 21.6 15 Oeste 28 Oeste 0 808.8 0.1 34
2019-08-02 15:00:00 21 14 Noroeste 34 Oeste 0 808.9 0.4 36
2019-08-02 14:00:00 20.4 10 Oeste 22 Noroeste 0 808.7 0.5 37
2019-08-02 13:00:00 19.9 12 Noroeste 21 Noroeste 0 808.7 0.8 32
2019-08-02 12:00:00 19.4 9 Noroeste 18 Sudoeste 0 808.5 0.8 32
2019-08-02 11:00:00 19 7 Noroeste 18 Este 0 808.2 0.9 31
2019-08-02 10:00:00 18.9 7 Sudeste 15 Este 0 807.9 0.6 27
2019-08-02 09:00:00 18 3 Noroeste 20 Sudoeste 0 807.7 0.5 33
2019-08-02 08:00:00 15.7 12 Sudoeste 25 Sudoeste 0 807.3 0 29
2019-08-02 07:00:00 13.4 7 Sudoeste 21 Sudoeste 0 807.3 -0.2 39
2019-08-02 06:00:00 13.8 14 Sur 29 Sur 0 807.2 -0.4 42
2019-08-02 05:00:00 13.9 14 Sur 23 Sur 0 807.3 -0.9 43
2019-08-02 04:00:00 13.2 20 Sudeste -- -- 0 807.5 -0.8 43
2019-08-02 03:00:00 12.5 -- -- -- -- 0 807.6 -0.5 57
2019-08-02 02:00:00 12.8 11 Este 16 Este 0 808.2 0.3 61
2019-08-02 01:00:00 12.7 5 Sudeste 16 Sudoeste 0 808.3 0.9 53
2019-08-02 00:00:00 13 11 Oeste 15 Oeste 0 808.1 1 48
2019-08-01 23:00:00 14.4 10 Sur 18 Sudoeste 0 807.9 1.2 44
2019-08-01 22:00:00 15 13 Sudoeste 19 Oeste 0 807.4 0.8 46
2019-08-01 21:00:00 18.3 13 Oeste 25 Oeste 0 807.1 0.6 36
2019-08-01 20:00:00 19.8 17 Oeste 29 Oeste 0 806.7 0.3 32
2019-08-01 19:00:00 20.8 13 Oeste -- -- 0 806.6 0.1 23
2019-08-01 18:00:00 20.6 17 Oeste -- -- 0 806.5 0 21
2019-08-01 17:00:00 21 -- -- -- -- 0 806.4 -0.2 30
2019-08-01 16:00:00 20.9 -- -- -- -- 0 806.5 0 27
2019-08-01 15:00:00 20.1 -- -- -- -- 0 806.5 0.4 32
2019-08-01 14:00:00 19.5 17 Noroeste 30 Oeste 0 806.6 0.9 29
2019-08-01 13:00:00 18.1 14 Oeste 23 Oeste 0 806.5 1.2 41
2019-08-01 12:00:00 16.8 10 Oeste 26 Oeste 0 806.1 1.1 46
2019-08-01 11:00:00 17.3 12 Oeste 23 Sudoeste 0 805.7 1.1 40
2019-08-01 10:00:00 16.8 15 Sudoeste -- -- 0 805.3 0.7 31
2019-08-01 09:00:00 16.1 22 Sudoeste 41 Sudoeste 0 805 0.5 18
2019-08-01 08:00:00 15.4 24 Sudoeste 40 Oeste 0 804.6 -0.2 17
2019-08-01 07:00:00 15.1 -- -- -- -- 0 804.6 -0.5 26
2019-08-01 06:00:00 16 -- -- -- -- 0 804.5 -1 31
2019-08-01 05:00:00 16.1 -- -- -- -- 0 804.8 -1 31
2019-08-01 04:00:00 16.5 -- -- -- -- 0 805.1 -0.9 27
2019-08-01 03:00:00 16.3 18 Sudoeste 28 Sudoeste 0 805.5 -0.8 30
2019-08-01 02:00:00 16.5 13 Sur 19 Sur 0 805.8 -0.7 29
2019-08-01 01:00:00 14.4 12 Sudeste 19 Este 0 806 -0.2 40
2019-08-01 00:00:00 14.4 14 Este 18 Este 0 806.3 0.2 52
2019-07-31 23:00:00 14.7 7 Sur 13 Sur 0 806.5 0.5 36
2019-07-31 22:00:00 14.5 8 Sudoeste 14 Oeste 0 806.2 0.1 43
2019-07-31 21:00:00 17.4 12 Oeste 17 Sudoeste 0 806.1 -0.1 36
2019-07-31 20:00:00 18.6 6 Sudeste 17 Sudeste 0 806 -0.6 31
2019-07-31 19:00:00 19.5 9 Sudeste 25 Sudoeste 0 806.1 -0.6 30
2019-07-31 18:00:00 20.9 13 Sur 26 Sur 0 806.2 -0.7 24
2019-07-31 17:00:00 21.1 9 Sur 42 Sur 0 806.6 -0.3 18
2019-07-31 16:00:00 21.3 10 Sur 29 Sur 0 806.7 -0.1 17
2019-07-31 15:00:00 20.4 13 Sur 27 Sudoeste 0 806.9 0.2 22
2019-07-31 14:00:00 20.5 11 Sur 35 Sudeste 0 806.9 0.5 28
2019-07-31 13:00:00 19.1 9 Norte 20 Norte 0 806.8 0.7 31
2019-07-31 12:00:00 18.7 9 Norte 16 Norte 0 806.7 0.8 35
2019-07-31 11:00:00 18.8 6 Norte 12 Nordeste 0 806.4 0.6 24
2019-07-31 10:00:00 17.7 5 Noroeste 19 Oeste 0 806.1 0 23
2019-07-31 09:00:00 16.3 13 Oeste 28 Sur 0 805.9 -0.2 27
2019-07-31 08:00:00 14.1 19 Sudeste 30 Sudeste 0 805.8 -0.6 30
2019-07-31 07:00:00 12 18 Sudeste 26 Sudeste 0 806.1 -0.4 36
2019-07-31 06:00:00 11.7 19 Sudeste 25 Sudeste 0 806.1 -0.8 36
2019-07-31 05:00:00 11 19 Sudeste 21 Sudeste 0 806.4 -0.7 35
2019-07-31 04:00:00 13.9 15 Sur 25 Sur 0 806.5 -0.8 26
2019-07-31 03:00:00 14 17 Sur 27 Sur 0 806.9 -0.6 27
2019-07-31 02:00:00 13.9 17 Sur 24 Sudeste 0 807.1 -0.5 30
2019-07-31 01:00:00 10.3 20 Este 35 Este 0 807.3 0.2 49
2019-07-31 00:00:00 11.1 27 Este 37 Este 0 807.5 0.5 47
2019-07-30 23:00:00 11.1 28 Este 35 Este 0 807.6 0.6 46
2019-07-30 22:00:00 10.7 26 Este 32 Este 0 807.1 0.1 44
2019-07-30 21:00:00 12 22 Este 27 Nordeste 0 807 -0.2 43
2019-07-30 20:00:00 13.7 19 Nordeste 28 Nordeste 0 807 -0.2 40
2019-07-30 19:00:00 14.9 22 Nordeste 31 Nordeste 0 807 -0.4 37
2019-07-30 18:00:00 15.3 19 Nordeste 33 Nordeste 0 807.2 -0.3 36
2019-07-30 17:00:00 15.4 22 Nordeste 33 Nordeste 0 807.2 -0.3 37
2019-07-30 16:00:00 14.7 22 Nordeste 36 Nordeste 0 807.4 -0.1 38
2019-07-30 15:00:00 13.8 22 Nordeste 39 Nordeste 0 807.5 0.4 42
2019-07-30 14:00:00 14.1 20 Nordeste 32 Este 0 807.5 0.6 44
2019-07-30 13:00:00 13.6 15 Nordeste 25 Este 0 807.5 0.8 49
2019-07-30 12:00:00 13.5 12 Nordeste 23 Nordeste 0 807.1 0.8 51
2019-07-30 11:00:00 12.5 11 Este 19 Nordeste 0 806.9 1.1 26
2019-07-30 10:00:00 11.8 10 Este 14 Este 0 806.7 0.8 37
2019-07-30 09:00:00 11.6 4 Sudoeste 11 Oeste 0 806.3 0.4 26
2019-07-30 08:00:00 6.7 3 Sudeste 17 Este 0 805.8 -0.3 47
2019-07-30 07:00:00 4.7 13 Este 23 Este 0 805.9 -0.2 81
2019-07-30 06:00:00 3.9 18 Este 22 Este 0 805.9 -0.4 92
2019-07-30 05:00:00 4.2 13 Este 18 Este 0 806.1 -0.5 88
2019-07-30 04:00:00 4.5 12 Este 25 Este 0 806.1 -0.5 90
2019-07-30 03:00:00 4.8 22 Este 26 Este 0 806.3 -0.2 90
2019-07-30 02:00:00 4.9 21 Este 26 Este 0 806.6 -0.1 90
2019-07-30 01:00:00 5.8 16 Este 21 Este 0 806.6 0.5 82
2019-07-30 00:00:00 6.2 14 Este 18 Este 0 806.5 0.7 73
2019-07-29 23:00:00 8.2 4 Sudeste 11 Sur 0 806.7 1.1 62
2019-07-29 22:00:00 9.2 8 Sudoeste 23 Oeste 0 806.1 0.6 57
2019-07-29 21:00:00 13.3 15 Oeste 26 Oeste 0 805.8 0.4 41
2019-07-29 20:00:00 15.2 17 Oeste -- -- 0 805.6 0.2 38
2019-07-29 19:00:00 16.8 -- -- -- -- 0 805.5 0.2 38
2019-07-29 18:00:00 16.8 -- -- -- -- 0 805.4 0.3 42
2019-07-29 17:00:00 16.6 -- -- -- -- 0 805.4 0.4 52
2019-07-29 16:00:00 18.1 -- -- -- -- 0 805.3 0.3 48
2019-07-29 15:00:00 17.6 21 Oeste 36 Oeste 0 805.1 0.4 40
2019-07-29 14:00:00 17.2 14 Oeste 25 Oeste 0 805 0.6 54
2019-07-29 13:00:00 16.1 12 Oeste 29 Sudoeste 0 805 0.9 48
2019-07-29 12:00:00 16.2 11 Oeste -- -- 0 804.7 1 41
2019-07-29 11:00:00 16.5 12 Oeste 26 Oeste 0 804.4 0.9 39
2019-07-29 10:00:00 16.1 -- -- -- -- 0 804.1 0.6 36
2019-07-29 09:00:00 15 -- -- -- -- 0 803.7 0.2 34
2019-07-29 08:00:00 13.7 -- -- -- -- 0 803.5 -0.2 50
2019-07-29 07:00:00 12.3 19 Sudoeste 31 Oeste 0 803.5 -0.3 66
2019-07-29 06:00:00 12.1 19 Sudoeste 28 Sudoeste 0 803.5 -0.7 66
2019-07-29 05:00:00 12 19 Sudoeste 24 Sudoeste 0 803.7 -0.7 62
2019-07-29 04:00:00 11.8 17 Sudoeste 23 Sudoeste 0 803.8 -0.6 64
2019-07-29 03:00:00 10.8 13 Sudoeste 18 Sudoeste 0 804.2 -0.4 64
2019-07-29 02:00:00 12.2 14 Sudoeste 18 Sudoeste 0 804.4 -0.3 61
2019-07-29 01:00:00 12.5 15 Sudoeste 21 Sudoeste 0 804.4 0.1 58
2019-07-29 00:00:00 12.9 15 Sudoeste 21 Sudoeste 0 804.6 0.6 60
2019-07-28 23:00:00 12.8 15 Sudoeste 18 Sudoeste 0 804.7 1 63
2019-07-28 22:00:00 13.6 13 Sudoeste 20 Oeste 0 804.3 0.7 60
2019-07-28 21:00:00 16.2 13 Oeste 28 Oeste 0 804 0.4 51
2019-07-28 20:00:00 17.3 16 Oeste 31 Oeste 0 803.7 0 47
2019-07-28 19:00:00 18 15 Oeste 27 Oeste 0 803.6 -0.3 43
2019-07-28 18:00:00 18 16 Oeste 30 Oeste 0 803.6 -0.3 43
2019-07-28 17:00:00 17.6 17 Oeste -- -- 0 803.7 -0.2 37
2019-07-28 16:00:00 17.1 -- -- -- -- 0 803.9 -0.1 46
2019-07-28 15:00:00 16.7 18 Oeste 34 Oeste 0 803.9 0.1 52
2019-07-28 14:00:00 15.8 19 Oeste 33 Oeste 0 803.9 0.3 58
2019-07-28 13:00:00 15.2 19 Oeste 31 Oeste 0 804 0.5 61
2019-07-28 12:00:00 14.1 16 Oeste 25 Oeste 0 803.8 0.8 70
2019-07-28 11:00:00 12.8 13 Oeste 23 Oeste 0 803.6 0.7 71
2019-07-28 10:00:00 12.8 15 Oeste 26 Oeste 0 803.5 0.5 70
2019-07-28 09:00:00 12.1 19 Sudoeste 28 Sudoeste 0 803 0.2 71
2019-07-28 08:00:00 10.6 16 Sudoeste 24 Sudoeste 0 802.9 0 75
2019-07-28 07:00:00 7.4 9 Sudoeste 14 Sudoeste 0 803 -0.1 86
2019-07-28 06:00:00 7.6 9 Sudoeste 16 Sur 0 802.8 -0.4 84
2019-07-28 05:00:00 7.7 8 Sur 14 Este 0 802.9 -0.4 80
2019-07-28 04:00:00 8.2 12 Este 14 Este 0 803.1 -0.4 90
2019-07-28 03:00:00 9.3 7 Este 12 Nordeste 0 803.2 -0.4 91
2019-07-28 02:00:00 9.5 4 Nordeste 20 Norte 0 803.3 -0.1 90
2019-07-28 01:00:00 9.9 10 Norte 18 Norte 0 803.5 0.6 89
2019-07-28 00:00:00 10.4 11 Norte 19 Norte 0 803.6 1.1 86
2019-07-27 23:00:00 11.1 8 Noroeste 20 Oeste 0 803.4 1.3 81
2019-07-26 12:00:00 13.1 13 Oeste 24 Noroeste 0 805 0.8 80
2019-07-26 11:00:00 13.9 8 Noroeste 22 Oeste 0 804.5 0.2 76
2019-07-26 10:00:00 13.6 13 Oeste 23 Oeste 0 804.5 0 73
2019-07-26 09:00:00 14.1 8 Oeste 21 Oeste 0 804.2 -0.5 28
2019-07-26 08:00:00 12.1 11 Sudoeste 22 Sudoeste 0 804.3 -0.7 47
2019-07-26 07:00:00 11.4 10 Sudoeste 21 Sudoeste 0 804.5 -1.1 85
2019-07-26 06:00:00 12.4 9 Sudoeste 23 Oeste 0 804.7 -1.2 84
2019-07-26 05:00:00 12.8 15 Sudoeste -- -- 0 805 -1.2 78
2019-07-26 04:00:00 11.1 -- -- -- -- 0 805.6 -0.9 92
2019-07-26 03:00:00 12.3 -- -- -- -- 0 805.9 -0.7 84
2019-07-26 02:00:00 13.6 -- -- -- -- 0 806.2 -0.4 69
2019-07-26 01:00:00 14.3 -- -- -- -- 0 806.5 -0.4 58
2019-07-26 00:00:00 14.8 -- -- -- -- 0 806.6 -0.4 62
2019-07-25 23:00:00 17 -- -- -- -- 0 806.6 -0.1 27
2019-07-25 22:00:00 15.5 23 Sudoeste 31 Sudoeste 0 806.9 0.1 51
2019-07-25 21:00:00 16.7 24 Sudoeste -- -- 0 807 0 48
2019-07-25 20:00:00 19.1 -- -- -- -- 0 806.7 -0.6 50
2019-07-25 19:00:00 20.8 -- -- -- -- 0 806.8 -0.7 41
2019-07-25 18:00:00 20.9 -- -- -- -- 0 807 -0.6 45
2019-07-25 17:00:00 20.7 -- -- -- -- 0 807.3 -0.4 45
2019-07-25 16:00:00 18.5 20 Sudoeste -- -- 0 807.5 0.2 44
2019-07-25 15:00:00 18.5 16 Sur -- -- 0 807.6 0.6 40
2019-07-25 14:00:00 19.2 -- -- -- -- 0 807.7 0.5 37
2019-07-25 13:00:00 19.5 30 Sur 54 Sur 0 807.3 -0.1 40
2019-07-25 12:00:00 19 35 Sur 55 Sur 0 807 -0.3 37
2019-07-25 11:00:00 18.5 33 Sur 48 Sur 0 807.2 -0.1 43
2019-07-25 10:00:00 17.7 26 Sur 44 Sudoeste 0 807.4 0.1 49
2019-07-25 09:00:00 17.5 28 Sur 45 Sur 0 807.3 0.2 49
2019-07-25 08:00:00 17.1 21 Sudoeste 39 Sudoeste 0 807.3 -0.2 53
2019-07-25 07:00:00 16.3 21 Sudoeste 39 Sudoeste 0 807.3 -0.4 55
2019-07-25 06:00:00 16.9 27 Sudoeste 39 Sudoeste 0 807.1 -0.8 52
2019-07-25 05:00:00 16.8 23 Sudoeste 33 Sudoeste 0 807.5 -0.6 49
2019-07-25 04:00:00 17.1 19 Sudoeste 26 Sudoeste 0 807.7 -0.6 48
2019-07-25 03:00:00 17.1 14 Sudoeste 22 Sudoeste 0 807.9 -0.6 46
2019-07-25 02:00:00 16.5 10 Sudoeste 16 Sur 0 808.1 -0.3 52
2019-07-25 01:00:00 15.9 10 Sudoeste 16 Sudoeste 0 808.3 0 51
2019-07-25 00:00:00 17.2 15 Sudoeste 26 Sudoeste 0 808.5 0.4 46
2019-07-24 23:00:00 18.4 16 Sudoeste 24 Sudoeste 0 808.4 0.3 37
2019-07-24 22:00:00 18.9 15 Sudoeste 27 Sudoeste 0 808.3 0.1 40
2019-07-24 21:00:00 21 17 Sudoeste 33 Oeste 0 808.1 -0.4 37
2019-07-24 20:00:00 22 13 Sur 30 Sudoeste 0 808.1 -0.9 37
2019-07-24 19:00:00 22.6 12 Sudoeste 44 Sudoeste 0 808.2 -0.8 37
2019-07-24 18:00:00 22.8 16 Sudoeste 35 Sudoeste 0 808.5 -0.8 37
2019-07-24 17:00:00 22.4 19 Sudoeste 36 Sudoeste 0 809 -0.5 40
2019-07-24 16:00:00 21.9 21 Sur 47 Sudoeste 0 809 -0.5 40
2019-07-24 15:00:00 21.6 21 Sudoeste 37 Sur 0 809.3 -0.1 36
2019-07-24 14:00:00 21.8 15 Sur -- -- 0 809.5 0.2 40
2019-07-24 13:00:00 21.2 14 Sur 30 Sudoeste 0 809.5 0.4 45
2019-07-24 12:00:00 20.3 14 Sur 29 Sur 0 809.4 0.4 50
2019-07-24 11:00:00 19.9 15 Sudoeste -- -- 0 809.3 0.5 53
2019-07-24 10:00:00 19.2 10 Sudoeste 27 Sudoeste 0 809.1 0.3 52
2019-07-24 09:00:00 18.6 11 Sudoeste 23 Sudoeste 0 809 0 54
2019-07-24 08:00:00 16.3 14 Sudoeste 20 Sudoeste 0 808.8 -0.3 62
2019-07-24 07:00:00 14.2 11 Sudoeste 19 Sur 0 808.8 -0.6 68
2019-07-24 06:00:00 14.2 13 Sudoeste 19 Sudoeste 0 809 -0.8 66
2019-07-24 05:00:00 14 12 Sur 20 Sur 0 809.1 -1 66
2019-07-24 04:00:00 14.5 14 Sudeste 24 Sudeste 0 809.4 -1 62
2019-07-24 03:00:00 14.8 21 Sudeste 25 Sudeste 0 809.8 -0.5 68
2019-07-24 02:00:00 15.1 12 Sudeste 17 Sudeste 0 810.1 0 70
2019-07-24 01:00:00 15 8 Sur 13 Sur 0 810.4 0.9 79
2019-07-24 00:00:00 15.3 8 Sudoeste 19 Sur 0 810.3 0.8 76
2019-07-23 23:00:00 16.8 13 Sudoeste 26 Sur 0.8 810.1 0.9 70
2019-07-23 22:00:00 18.7 16 Sudoeste 25 Oeste 0 809.5 0.4 56
2019-07-23 21:00:00 20 15 Sudoeste 29 Sudoeste 0 809.5 0 51
2019-07-23 20:00:00 21.5 23 Sudoeste 35 Oeste 0 809.2 -0.8 41
2019-07-23 19:00:00 22.4 17 Sudoeste -- -- 0 809.1 -1 38
2019-07-23 18:00:00 22.2 20 Sur -- -- -- 809.5 -0.5 38
2019-07-23 17:00:00 21.8 22 Sudoeste -- -- 0 810 -0.3 45
2019-07-23 16:00:00 21.9 -- -- -- -- 0 810.1 0 39
2019-07-23 15:00:00 21.8 -- -- -- -- 0 810 -- 41
2019-07-23 14:00:00 20.9 -- -- -- -- 0 810.3 -- 38
2019-07-23 13:00:00 20.4 17 Sur -- -- -- 810.1 -- 35
2019-07-23 12:00:00 -- -- -- -- -- -- -- -- --
2019-07-23 11:00:00 -- -- -- -- -- -- -- -- --
2019-07-23 10:00:00 -- -- -- -- -- -- -- -- --
2019-07-23 09:00:00 -- -- -- -- -- -- -- -- --
2019-07-23 08:00:00 -- -- -- -- -- -- -- -- --
2019-07-23 07:00:00 -- -- -- -- -- -- -- -- --
2019-07-23 06:00:00 -- -- -- -- -- -- -- -- --
2019-07-23 05:00:00 -- -- -- -- -- -- -- -- --
2019-07-23 04:00:00 -- -- -- -- -- -- -- -- --
2019-07-23 03:00:00 -- -- -- -- -- -- -- -- --
2019-07-23 02:00:00 -- -- -- -- -- -- -- -- --
2019-07-23 01:00:00 -- -- -- -- -- -- -- -- --
2019-07-23 00:00:00 -- -- -- -- -- -- -- -- --
2019-07-22 23:00:00 -- -- -- -- -- -- -- -- --
2019-07-22 22:00:00 -- -- -- -- -- -- -- -- --
2019-07-22 21:00:00 -- -- -- -- -- -- -- -- --
2019-07-22 20:00:00 -- -- -- -- -- -- -- -- --
2019-07-22 19:00:00 -- -- -- -- -- -- -- -- --
2019-07-22 18:00:00 -- -- -- -- -- -- -- -- --
2019-07-22 17:00:00 -- -- -- -- -- -- -- -- --
2019-07-22 16:00:00 -- -- -- -- -- -- -- -- --
2019-07-22 15:00:00 -- -- -- -- -- -- -- -- --
2019-07-22 14:00:00 -- -- -- -- -- -- -- -- --
2019-07-22 13:00:00 -- -- -- -- -- -- -- -- --
2019-07-22 12:00:00 -- -- -- -- -- -- -- -- --
2019-07-22 11:00:00 -- -- -- -- -- -- -- -- --
2019-07-22 10:00:00 -- -- -- -- -- -- -- -- --
2019-07-22 09:00:00 -- -- -- -- -- -- -- -- --
2019-07-22 08:00:00 -- -- -- -- -- -- -- -- --
2019-07-22 07:00:00 -- -- -- -- -- -- -- -- --
2019-07-22 06:00:00 -- -- -- -- -- -- -- -- --
2019-07-22 05:00:00 -- -- -- -- -- -- -- -- --
2019-07-22 04:00:00 -- -- -- -- -- -- -- -- --
2019-07-22 03:00:00 -- -- -- -- -- -- -- -- --
2019-07-22 02:00:00 -- -- -- -- -- -- -- -- --
2019-07-22 01:00:00 -- -- -- -- -- -- -- -- --
2019-07-22 00:00:00 -- -- -- -- -- -- -- -- --
2019-07-21 23:00:00 -- -- -- -- -- -- -- -- --
2019-07-21 22:00:00 -- -- -- -- -- -- -- -- --
2019-07-21 21:00:00 -- -- -- -- -- -- -- -- --
2019-07-21 20:00:00 -- -- -- -- -- -- -- -- --
2019-07-21 19:00:00 -- -- -- -- -- -- -- -- --
2019-07-21 18:00:00 -- -- -- -- -- -- -- -- --
2019-07-21 17:00:00 -- -- -- -- -- -- -- -- --
2019-07-21 16:00:00 -- -- -- -- -- -- -- -- --
2019-07-21 15:00:00 -- -- -- -- -- -- -- -- --
2019-07-21 14:00:00 -- -- -- -- -- -- -- -- --
2019-07-21 13:00:00 -- -- -- -- -- -- -- -- --
2019-07-21 12:00:00 -- -- -- -- -- -- -- -- --
2019-07-21 11:00:00 -- -- -- -- -- -- -- -- --
2019-07-21 10:00:00 -- -- -- -- -- -- -- -- --
2019-07-21 09:00:00 -- -- -- -- -- -- -- -- --
2019-07-21 08:00:00 -- -- -- -- -- -- -- -- --
2019-07-21 07:00:00 -- -- -- -- -- -- -- -- --
2019-07-21 06:00:00 -- -- -- -- -- -- -- -- --
2019-07-21 05:00:00 -- -- -- -- -- -- -- -- --
2019-07-21 04:00:00 -- -- -- -- -- -- -- -- --
2019-07-21 03:00:00 -- -- -- -- -- -- -- -- --
2019-07-21 02:00:00 -- -- -- -- -- -- -- -- --
2019-07-21 01:00:00 -- -- -- -- -- -- -- -- --
2019-07-21 00:00:00 -- -- -- -- -- -- -- -- --
2019-07-20 23:00:00 -- -- -- -- -- -- -- -- --
2019-07-20 22:00:00 -- -- -- -- -- -- -- -- --
2019-07-20 21:00:00 -- -- -- -- -- -- -- -- --
2019-07-20 20:00:00 -- -- -- -- -- -- -- -- --
2019-07-20 19:00:00 -- -- -- -- -- -- -- -- --
2019-07-20 18:00:00 -- -- -- -- -- -- -- -- --
2019-07-20 17:00:00 -- -- -- -- -- -- -- -- --
2019-07-20 16:00:00 -- -- -- -- -- -- -- -- --
2019-07-20 15:00:00 -- -- -- -- -- -- -- -- --
2019-07-20 14:00:00 -- -- -- -- -- -- -- -- --
2019-07-20 13:00:00 -- -- -- -- -- -- -- -- --
2019-07-20 12:00:00 -- -- -- -- -- -- -- -- --
2019-07-20 11:00:00 -- -- -- -- -- -- -- -- --
2019-07-20 10:00:00 -- -- -- -- -- -- -- -- --
2019-07-20 09:00:00 -- -- -- -- -- -- -- -- --
2019-07-20 08:00:00 -- -- -- -- -- -- -- -- --
2019-07-20 07:00:00 -- -- -- -- -- -- -- -- --
2019-07-20 06:00:00 -- -- -- -- -- -- -- -- --
2019-07-20 05:00:00 -- -- -- -- -- -- -- -- --
2019-07-20 04:00:00 -- -- -- -- -- -- -- -- --
2019-07-20 03:00:00 -- -- -- -- -- -- -- -- --
2019-07-20 02:00:00 -- -- -- -- -- -- -- -- --
2019-07-20 01:00:00 -- -- -- -- -- -- -- -- --
2019-07-20 00:00:00 -- -- -- -- -- -- -- -- --
2019-07-19 23:00:00 -- -- -- -- -- -- -- -- --
2019-07-19 22:00:00 -- -- -- -- -- -- -- -- --
2019-07-19 21:00:00 -- -- -- -- -- -- -- -- --
2019-07-19 20:00:00 -- -- -- -- -- -- -- -- --
2019-07-19 19:00:00 -- -- -- -- -- -- -- -- --
2019-07-19 18:00:00 -- -- -- -- -- -- -- -- --
2019-07-19 17:00:00 -- -- -- -- -- -- -- -- --
2019-07-19 16:00:00 -- -- -- -- -- -- -- -- --
2019-07-19 15:00:00 -- -- -- -- -- -- -- -- --
2019-07-19 14:00:00 -- -- -- -- -- -- -- -- --
2019-07-19 13:00:00 -- -- -- -- -- -- -- -- --
2019-07-19 12:00:00 -- -- -- -- -- -- -- -- --
2019-07-19 11:00:00 -- -- -- -- -- -- -- -- --
2019-07-19 10:00:00 -- -- -- -- -- -- -- -- --
2019-07-19 09:00:00 -- -- -- -- -- -- -- -- --
2019-07-19 08:00:00 -- -- -- -- -- -- -- -- --
2019-07-19 07:00:00 -- -- -- -- -- -- -- -- --
2019-07-19 06:00:00 -- -- -- -- -- -- -- -- --
2019-07-19 05:00:00 -- -- -- -- -- -- -- -- --
2019-07-19 04:00:00 -- -- -- -- -- -- -- -- --
2019-07-19 03:00:00 -- -- -- -- -- -- -- -- --
2019-07-19 02:00:00 -- -- -- -- -- -- -- -- --
2019-07-19 01:00:00 -- -- -- -- -- -- -- -- --
2019-07-19 00:00:00 -- -- -- -- -- -- -- -- --